createdAt,value
2018-09-19T00:01:56.837Z,95969.09
2018-09-19T00:04:26.664Z,95968.30
2018-09-19T00:06:56.351Z,95961.00
2018-09-19T00:09:26.199Z,95963.79
2018-09-19T00:11:55.907Z,95964.41
2018-09-19T00:14:25.713Z,95921.19
2018-09-19T00:16:55.505Z,95959.10
2018-09-19T00:19:25.407Z,95960.16
2018-09-19T00:21:55.200Z,95962.99
2018-09-19T00:24:24.926Z,95962.48
2018-09-19T00:26:54.755Z,95962.52
2018-09-19T00:29:24.607Z,95970.56
2018-09-19T00:31:54.382Z,95960.59
2018-09-19T00:34:24.189Z,95960.91
2018-09-19T00:36:54.255Z,95961.57
2018-09-19T00:39:24.025Z,95963.94
2018-09-19T00:41:53.850Z,95960.30
2018-09-19T00:44:23.661Z,95965.53
2018-09-19T00:46:53.438Z,95957.61
2018-09-19T00:49:23.310Z,95965.21
2018-09-19T00:51:53.093Z,95960.13
2018-09-19T00:54:22.913Z,95963.83
2018-09-19T00:56:53.025Z,95959.66
2018-09-19T00:59:22.734Z,95960.01
2018-09-19T01:01:52.498Z,95963.70
2018-09-19T01:04:22.331Z,95960.92
2018-09-19T01:06:52.372Z,95958.34
2018-09-19T01:09:22.048Z,95958.97
2018-09-19T01:11:51.759Z,95960.19
2018-09-19T01:14:21.571Z,95950.66
2018-09-19T01:16:51.378Z,95954.22
2018-09-19T01:19:21.253Z,95958.47
2018-09-19T01:21:51.295Z,95959.16
2018-09-19T01:24:21.056Z,95956.58
2018-09-19T01:26:50.827Z,95957.80
2018-09-19T01:29:20.614Z,95958.27
2018-09-19T01:31:50.488Z,95955.58
2018-09-19T01:34:20.302Z,95957.89
2018-09-19T01:36:50.040Z,95959.08
2018-09-19T01:39:19.823Z,95968.55
2018-09-19T01:41:49.534Z,95966.80
2018-09-19T01:44:19.396Z,95965.82
2018-09-19T01:46:49.204Z,95977.71
2018-09-19T01:49:19.074Z,95973.64
2018-09-19T01:51:52.856Z,95959.31
2018-09-19T01:54:23.161Z,95956.77
2018-09-19T01:56:53.275Z,95954.58
2018-09-19T01:59:23.332Z,95952.62
2018-09-19T02:01:53.619Z,95953.41
2018-09-19T02:04:23.374Z,95950.09
2018-09-19T02:06:53.119Z,95943.03
2018-09-19T02:09:23.003Z,95945.62
2018-09-19T02:11:52.957Z,95951.35
2018-09-19T02:14:22.846Z,95950.30
2018-09-19T02:16:52.722Z,95950.36
2018-09-19T02:19:23.050Z,95955.86
2018-09-19T02:21:53.684Z,95951.02
2018-09-19T02:24:24.282Z,95955.75
2018-09-19T02:26:54.592Z,95946.94
2018-09-19T02:29:25.321Z,95955.56
2018-09-19T02:31:55.823Z,95953.32
2018-09-19T02:34:26.355Z,95947.11
2018-09-19T02:36:56.794Z,95946.58
2018-09-19T02:39:27.234Z,95940.20
2018-09-19T02:41:57.367Z,95938.36
2018-09-19T02:44:27.244Z,95943.27
2018-09-19T02:46:56.952Z,95940.34
2018-09-19T02:49:26.821Z,95942.51
2018-09-19T02:51:58.782Z,95940.55
2018-09-19T02:54:30.773Z,95942.52
2018-09-19T02:57:00.600Z,95941.39
2018-09-19T02:59:30.695Z,95948.06
2018-09-19T03:02:01.161Z,95945.64
2018-09-19T03:04:30.899Z,95956.61
2018-09-19T03:07:00.588Z,95955.81
2018-09-19T03:09:30.292Z,95963.08
2018-09-19T03:12:00.811Z,95959.86
2018-09-19T03:14:31.261Z,95962.28
2018-09-19T03:17:01.136Z,95962.97
2018-09-19T03:19:30.915Z,95964.45
2018-09-19T03:22:01.316Z,95958.88
2018-09-19T03:24:31.169Z,95963.33
2018-09-19T03:27:00.893Z,95963.38
2018-09-19T03:29:30.651Z,95960.56
2018-09-19T03:32:00.429Z,95964.89
2018-09-19T03:34:30.136Z,95964.67
2018-09-19T03:36:59.945Z,95973.36
2018-09-19T03:39:29.754Z,95969.52
2018-09-19T03:41:59.601Z,95966.12
2018-09-19T03:44:29.401Z,95968.48
2018-09-19T03:47:00.199Z,95963.11
2018-09-19T03:49:30.281Z,95972.45
2018-09-19T03:52:00.830Z,95959.39
2018-09-19T03:54:30.662Z,95955.11
2018-09-19T03:57:00.341Z,95962.13
2018-09-19T03:59:30.265Z,95966.86
2018-09-19T04:02:00.399Z,95961.92
2018-09-19T04:04:30.151Z,95965.02
2018-09-19T04:06:59.920Z,95972.13
2018-09-19T04:09:29.724Z,95966.55
2018-09-19T04:11:59.518Z,95972.77
2018-09-19T04:14:29.363Z,95972.80
2018-09-19T04:16:59.230Z,95977.28
2018-09-19T04:19:28.962Z,95974.22
2018-09-19T04:21:58.685Z,95976.55
2018-09-19T04:24:28.394Z,95979.11
2018-09-19T04:26:58.162Z,95978.87
2018-09-19T04:29:27.888Z,95981.33
2018-09-19T04:31:57.758Z,95983.88
2018-09-19T04:34:27.658Z,95989.62
2018-09-19T04:36:57.471Z,95990.52
2018-09-19T04:39:27.395Z,95988.52
2018-09-19T04:41:57.262Z,95993.44
2018-09-19T04:44:27.116Z,95994.39
2018-09-19T04:46:56.934Z,95991.42
2018-09-19T04:49:26.671Z,95993.47
2018-09-19T04:51:56.552Z,95997.56
2018-09-19T04:54:26.345Z,95992.53
2018-09-19T04:56:56.057Z,95996.25
2018-09-19T04:59:25.823Z,95996.95
2018-09-19T05:01:55.575Z,96000.59
2018-09-19T05:04:25.600Z,96001.10
2018-09-19T05:06:56.345Z,95999.98
2018-09-19T05:09:26.818Z,95998.64
2018-09-19T05:11:57.327Z,96001.97
2018-09-19T05:14:27.059Z,96001.25
2018-09-19T05:16:56.963Z,96000.28
2018-09-19T05:19:26.682Z,95999.77
2018-09-19T05:21:56.460Z,96001.60
2018-09-19T05:24:26.149Z,96002.02
2018-09-19T05:26:55.913Z,95998.48
2018-09-19T05:29:25.722Z,95994.97
2018-09-19T05:31:55.708Z,95998.58
2018-09-19T05:34:25.535Z,96003.36
2018-09-19T05:36:55.253Z,95996.52
2018-09-19T05:39:24.955Z,96007.52
2018-09-19T05:41:54.671Z,96008.61
2018-09-19T05:44:24.367Z,96008.52
2018-09-19T05:46:54.200Z,96010.01
2018-09-19T05:49:23.817Z,96011.72
2018-09-19T05:51:53.833Z,96008.63
2018-09-19T05:54:23.475Z,96003.64
2018-09-19T05:56:53.106Z,96000.46
2018-09-19T05:59:22.842Z,96006.59
2018-09-19T06:01:52.583Z,96003.98
2018-09-19T06:04:22.291Z,95998.09
2018-09-19T06:09:54.181Z,95992.19
2018-09-19T06:12:23.940Z,95995.42
2018-09-19T06:14:53.647Z,95992.13
2018-09-19T06:17:23.379Z,95994.11
2018-09-19T06:19:53.089Z,95988.83
2018-09-19T06:22:22.799Z,95988.73
2018-09-19T06:24:52.472Z,95995.72
2018-09-19T06:27:22.141Z,95998.94
2018-09-19T06:29:51.827Z,95993.50
2018-09-19T06:32:21.524Z,95994.31
2018-09-19T06:34:51.217Z,95991.28
2018-09-19T06:37:20.894Z,95989.71
2018-09-19T06:39:50.683Z,95995.03
2018-09-19T06:42:20.366Z,96003.00
2018-09-19T06:44:50.082Z,95995.05
2018-09-19T06:47:19.774Z,95988.98
2018-09-19T06:49:49.460Z,95982.28
2018-09-19T06:52:19.206Z,95996.75
2018-09-19T06:54:49.034Z,95984.51
2018-09-19T06:57:18.737Z,95980.63
2018-09-19T06:59:48.520Z,95974.93
2018-09-19T07:02:18.299Z,95970.45
2018-09-19T07:04:48.011Z,95975.65
2018-09-19T07:07:17.810Z,95970.64
2018-09-19T07:09:47.518Z,95964.99
2018-09-19T07:12:17.402Z,95963.66
2018-09-19T07:14:47.046Z,95965.67
2018-09-19T07:17:16.647Z,95966.30
2018-09-19T07:19:46.428Z,95962.30
2018-09-19T07:22:16.182Z,95960.91
2018-09-19T07:24:45.914Z,95965.67
2018-09-19T07:27:15.671Z,95961.97
2018-09-19T07:29:45.472Z,95963.96
2018-09-19T07:32:15.207Z,95968.46
2018-09-19T07:34:44.905Z,95961.05
2018-09-19T07:37:14.805Z,95954.78
2018-09-19T07:39:44.577Z,95964.02
2018-09-19T07:42:14.357Z,95961.14
2018-09-19T07:44:44.105Z,95953.58
2018-09-19T07:47:13.868Z,95948.58
2018-09-19T07:49:43.847Z,95947.14
2018-09-19T07:52:13.610Z,95952.56
2018-09-19T07:54:43.474Z,95947.88
2018-09-19T07:57:13.243Z,95942.53
2018-09-19T07:59:42.991Z,95942.66
2018-09-19T08:02:12.723Z,95936.18
2018-09-19T08:04:42.463Z,95939.84
2018-09-19T08:07:12.176Z,95936.42
2018-09-19T08:09:41.880Z,95934.56
2018-09-19T08:12:11.584Z,95935.57
2018-09-19T08:14:41.486Z,95936.45
2018-09-19T08:17:11.236Z,95927.52
2018-09-19T08:19:40.997Z,95929.84
2018-09-19T08:22:10.769Z,95739.41
2018-09-19T08:24:40.501Z,95918.64
2018-09-19T08:27:10.254Z,95923.68
2018-09-19T08:29:40.011Z,95920.56
2018-09-19T08:32:09.728Z,95919.09
2018-09-19T08:34:39.474Z,95914.22
2018-09-19T08:37:09.143Z,95918.13
2018-09-19T08:39:38.866Z,95910.10
2018-09-19T08:42:08.661Z,95902.19
2018-09-19T08:44:38.210Z,95898.99
2018-09-19T08:47:07.986Z,95901.09
2018-09-19T08:49:37.733Z,95896.99
2018-09-19T08:52:07.382Z,95886.77
2018-09-19T08:54:37.129Z,95886.05
2018-09-19T08:57:07.434Z,95882.70
2018-09-19T08:59:37.531Z,95872.76
2018-09-19T09:02:07.324Z,95870.28
2018-09-19T09:04:37.091Z,95869.97
2018-09-19T09:07:06.900Z,95865.59
2018-09-19T09:09:36.623Z,95861.95
2018-09-19T09:12:06.456Z,95864.88
2018-09-19T09:14:36.171Z,95857.20
2018-09-19T09:17:06.471Z,95850.72
2018-09-19T09:19:36.206Z,95845.48
2018-09-19T09:22:06.011Z,95845.19
2018-09-19T09:24:35.715Z,95844.09
2018-09-19T09:27:05.588Z,95837.80
2018-09-19T09:29:35.299Z,95830.30
2018-09-19T09:32:05.063Z,95828.32
2018-09-19T09:34:34.840Z,95829.59
2018-09-19T09:37:04.612Z,95830.29
2018-09-19T09:39:34.494Z,95841.57
2018-09-19T09:42:04.259Z,95829.83
2018-09-19T09:44:34.125Z,95822.56
2018-09-19T09:47:03.960Z,95815.69
2018-09-19T09:49:33.626Z,95810.92
2018-09-19T09:52:03.257Z,95808.00
2018-09-19T09:54:33.017Z,95807.56
2018-09-19T09:57:02.723Z,95804.05
2018-09-19T09:59:32.452Z,95803.81
2018-09-19T10:02:02.203Z,95805.72
2018-09-19T10:04:32.014Z,95802.06
2018-09-19T10:07:01.766Z,95788.28
2018-09-19T10:09:31.584Z,95790.42
2018-09-19T10:12:01.466Z,95789.92
2018-09-19T10:14:31.274Z,95785.23
2018-09-19T10:17:01.117Z,95777.63
2018-09-19T10:19:31.501Z,95778.27
2018-09-19T10:22:01.226Z,95775.61
2018-09-19T10:24:30.954Z,95765.29
2018-09-19T10:27:00.728Z,95776.87
2018-09-19T10:29:30.472Z,95770.67
2018-09-19T10:32:00.227Z,95771.25
2018-09-19T10:34:29.977Z,95764.01
2018-09-19T10:36:59.800Z,95763.96
2018-09-19T10:39:29.429Z,95751.77
2018-09-19T10:41:59.221Z,95746.09
2018-09-19T10:44:28.993Z,95743.41
2018-09-19T10:46:58.854Z,95740.53
2018-09-19T10:49:28.730Z,95730.77
2018-09-19T10:51:58.342Z,95730.89
2018-09-19T10:54:28.204Z,95732.70
2018-09-19T10:56:58.000Z,95730.28
2018-09-19T10:59:27.795Z,95725.25
2018-09-19T11:01:57.538Z,95724.37
2018-09-19T11:04:27.218Z,95716.43
2018-09-19T11:06:56.936Z,95720.57
2018-09-19T11:09:26.682Z,95713.12
2018-09-19T11:11:56.460Z,95711.61
2018-09-19T11:14:26.406Z,95705.17
2018-09-19T11:16:56.244Z,95703.31
2018-09-19T11:19:26.015Z,95607.66
2018-09-19T11:21:56.171Z,95692.30
2018-09-19T11:24:26.049Z,95689.95
2018-09-19T11:26:55.972Z,95689.30
2018-09-19T11:29:25.811Z,95679.45
2018-09-19T11:31:55.821Z,95682.05
2018-09-19T11:34:25.731Z,95682.81
2018-09-19T11:36:55.477Z,95669.57
2018-09-19T11:39:25.292Z,95672.61
2018-09-19T11:41:54.995Z,95676.41
2018-09-19T11:44:24.831Z,95661.95
2018-09-19T11:46:54.591Z,95653.83
2018-09-19T11:49:24.399Z,95655.00
2018-09-19T11:51:54.352Z,95656.00
2018-09-19T11:54:24.041Z,95648.37
2018-09-19T11:56:53.756Z,95650.30
2018-09-19T11:59:23.627Z,95652.17
2018-09-19T12:01:53.513Z,95645.64
2018-09-19T12:04:23.271Z,95636.37
2018-09-19T12:06:52.956Z,95635.11
2018-09-19T12:09:22.852Z,95636.42
2018-09-19T12:11:52.607Z,95627.61
2018-09-19T12:14:22.412Z,95629.27
2018-09-19T12:16:52.155Z,95625.36
2018-09-19T12:19:21.999Z,95625.77
2018-09-19T12:21:52.280Z,95617.49
2018-09-19T12:24:22.466Z,95613.02
2018-09-19T12:26:52.259Z,95611.89
2018-09-19T12:29:22.094Z,95602.90
2018-09-19T12:31:51.907Z,95601.44
2018-09-19T12:34:21.592Z,95602.02
2018-09-19T12:36:51.363Z,95603.17
2018-09-19T12:39:21.090Z,95589.52
2018-09-19T12:41:50.683Z,95586.80
2018-09-19T12:44:20.559Z,95585.83
2018-09-19T12:46:50.506Z,95585.41
2018-09-19T12:49:20.187Z,95575.30
2018-09-19T12:51:50.015Z,95575.09
2018-09-19T12:54:19.840Z,95583.80
2018-09-19T12:56:49.650Z,95575.09
2018-09-19T12:59:19.553Z,95578.66
2018-09-19T13:01:49.323Z,95572.92
2018-09-19T13:04:19.058Z,95570.67
2018-09-19T13:06:49.043Z,95576.06
2018-09-19T13:09:18.941Z,95575.44
2018-09-19T13:11:48.847Z,95575.50
2018-09-19T13:14:18.583Z,95568.96
2018-09-19T13:16:48.257Z,95559.66
2018-09-19T13:19:17.978Z,95563.17
2018-09-19T13:21:47.667Z,95555.26
2018-09-19T13:24:17.449Z,95564.14
2018-09-19T13:26:47.594Z,95550.35
2018-09-19T13:29:17.348Z,95548.31
2018-09-19T13:31:47.190Z,95557.13
2018-09-19T13:34:16.896Z,95546.71
2018-09-19T13:36:46.642Z,95550.48
2018-09-19T13:39:16.324Z,95550.47
2018-09-19T13:41:46.422Z,95544.33
2018-09-19T13:44:16.316Z,95536.78
2018-09-19T13:46:46.159Z,95544.80
2018-09-19T13:50:30.486Z,95544.56
2018-09-19T13:53:00.205Z,95531.78
2018-09-19T13:56:58.905Z,95541.03
2018-09-19T13:59:29.331Z,95537.00
2018-09-19T14:01:59.112Z,95538.30
2018-09-19T14:04:28.989Z,95523.61
2018-09-19T14:06:58.879Z,95530.52
2018-09-19T14:09:28.638Z,95531.53
2018-09-19T14:11:58.509Z,95529.23
2018-09-19T14:14:28.347Z,95536.06
2018-09-19T14:16:58.293Z,95531.92
2018-09-19T14:19:27.888Z,95531.06
2018-09-19T14:21:57.792Z,95530.94
2018-09-19T14:24:27.691Z,95531.82
2018-09-19T14:26:57.599Z,95531.09
2018-09-19T14:32:37.063Z,95528.06
2018-09-19T14:35:06.832Z,95531.24
2018-09-19T14:37:36.583Z,95527.42
2018-09-19T14:40:06.452Z,95532.41
2018-09-19T14:42:36.655Z,95531.52
2018-09-19T14:45:06.960Z,95530.92
2018-09-19T14:47:36.584Z,95525.12
2018-09-19T14:50:06.626Z,95528.30
2018-09-19T14:52:37.470Z,95528.85
2018-09-19T14:55:07.413Z,95530.77
2018-09-19T14:57:37.133Z,95532.88
2018-09-19T15:00:07.197Z,95528.97
2018-09-19T15:02:37.006Z,95532.50
2018-09-19T15:05:06.963Z,95534.67
2018-09-19T15:07:36.856Z,95537.61
2018-09-19T15:10:06.679Z,95541.82
2018-09-19T15:12:36.519Z,95548.06
2018-09-19T15:15:06.357Z,95549.22
2018-09-19T15:17:36.213Z,95548.55
2018-09-19T15:20:06.087Z,95556.70
2018-09-19T15:22:35.936Z,95547.53
2018-09-19T15:25:06.044Z,95549.67
2018-09-19T15:27:35.750Z,95553.42
2018-09-19T15:30:05.820Z,95561.73
2018-09-19T15:32:35.670Z,95556.96
2018-09-19T15:35:05.964Z,95561.11
2018-09-19T15:37:36.068Z,95557.07
2018-09-19T15:40:06.140Z,95562.39
2018-09-19T15:42:36.389Z,95566.59
2018-09-19T15:45:06.328Z,95570.53
2018-09-19T15:47:36.246Z,95572.16
2018-09-19T15:50:06.129Z,95578.03
2018-09-19T15:52:36.141Z,95577.34
2018-09-19T15:55:06.135Z,95584.20
2018-09-19T15:57:35.977Z,95583.03
2018-09-19T16:00:06.171Z,95593.16
2018-09-19T16:02:35.889Z,95598.68
2018-09-19T16:05:06.702Z,95596.80
2018-09-19T16:07:36.533Z,95598.43
2018-09-19T16:10:06.298Z,95610.50
2018-09-19T16:12:37.194Z,95605.02
2018-09-19T16:15:07.068Z,95604.38
2018-09-19T16:17:36.806Z,95614.00
2018-09-19T16:20:06.614Z,95620.38
2018-09-19T16:22:37.367Z,95627.35
2018-09-19T16:25:07.220Z,95633.17
2018-09-19T16:27:36.955Z,95631.05
2018-09-19T16:30:06.785Z,95652.92
2018-09-19T16:32:36.503Z,95637.42
2018-09-19T16:35:06.327Z,95640.49
2018-09-19T16:37:37.116Z,95647.14
2018-09-19T16:40:06.919Z,95652.00
2018-09-19T16:42:37.426Z,95654.77
2018-09-19T16:45:07.251Z,95659.08
2018-09-19T16:47:37.011Z,95655.11
2018-09-19T16:50:06.792Z,95662.50
2018-09-19T16:52:36.573Z,95669.95
2018-09-19T16:55:06.450Z,95674.32
2018-09-19T16:57:36.093Z,95686.70
2018-09-19T17:00:06.470Z,95685.56
2018-09-19T17:02:36.333Z,95697.56
2018-09-19T17:05:06.250Z,95700.24
2018-09-19T17:07:36.108Z,95710.83
2018-09-19T17:10:06.074Z,95474.50
2018-09-19T17:12:35.802Z,95712.88
2018-09-19T17:15:05.759Z,95725.02
2018-09-19T17:17:35.569Z,95730.19
2018-09-19T17:20:05.496Z,95731.81
2018-09-19T17:22:35.112Z,95735.84
2018-09-19T17:25:04.877Z,95742.61
2018-09-19T17:27:34.661Z,95751.95
2018-09-19T17:30:04.385Z,95755.06
2018-09-19T17:32:34.152Z,95760.48
2018-09-19T17:35:03.899Z,95767.27
2018-09-19T17:37:33.558Z,95774.73
2018-09-19T17:40:03.457Z,95772.16
2018-09-19T17:42:33.132Z,95771.09
2018-09-19T17:45:03.121Z,95783.09
2018-09-19T17:47:33.003Z,95791.61
2018-09-19T17:50:02.905Z,95791.25
2018-09-19T17:52:32.792Z,95797.88
2018-09-19T17:55:02.578Z,95809.18
2018-09-19T17:57:32.290Z,95816.33
2018-09-19T18:00:02.089Z,95810.61
2018-09-19T18:02:31.674Z,95825.84
2018-09-19T18:05:01.421Z,95832.58
2018-09-19T18:07:31.193Z,95833.78
2018-09-19T18:10:00.972Z,95834.84
2018-09-19T18:12:30.798Z,95838.44
2018-09-19T18:15:00.575Z,95838.87
2018-09-19T18:17:30.356Z,95841.94
2018-09-19T18:20:00.091Z,95798.99
2018-09-19T18:22:29.901Z,95847.59
2018-09-19T18:24:59.574Z,95847.47
2018-09-19T18:27:29.186Z,95852.44
2018-09-19T18:29:59.007Z,95855.50
2018-09-19T18:32:28.565Z,95856.41
2018-09-19T18:34:58.376Z,95861.14
2018-09-19T18:37:28.152Z,95866.02
2018-09-19T18:39:57.968Z,95865.19
2018-09-19T18:42:28.344Z,95874.12
2018-09-19T18:44:58.237Z,95877.05
2018-09-19T18:47:27.893Z,95890.34
2018-09-19T18:49:57.694Z,95893.17
2018-09-19T18:52:27.378Z,95892.39
2018-09-19T18:54:56.992Z,95896.78
2018-09-19T18:57:26.679Z,95904.08
2018-09-19T18:59:56.459Z,95907.61
2018-09-19T19:02:26.102Z,95907.89
2018-09-19T19:04:56.150Z,95911.64
2018-09-19T19:07:26.004Z,95914.16
2018-09-19T19:09:55.648Z,95915.28
2018-09-19T19:12:25.474Z,95913.95
2018-09-19T19:14:55.341Z,95911.93
2018-09-19T19:17:25.045Z,95917.69
2018-09-19T19:19:54.775Z,95922.04
2018-09-19T19:22:24.431Z,95929.02
2018-09-19T19:24:54.314Z,95919.38
2018-09-19T19:27:24.031Z,95925.38
2018-09-19T19:29:53.900Z,95917.42
2018-09-19T19:32:23.716Z,95919.09
2018-09-19T19:34:54.089Z,95912.78
2018-09-19T19:37:23.795Z,95909.77
2018-09-19T19:39:53.546Z,95918.19
2018-09-19T19:42:23.374Z,95918.55
2018-09-19T19:44:53.576Z,95919.69
2018-09-19T19:47:23.306Z,95920.83
2018-09-19T19:49:53.050Z,95923.54
2018-09-19T19:52:22.664Z,95920.14
2018-09-19T19:54:52.469Z,95916.31
2018-09-19T19:57:22.235Z,95912.81
2018-09-19T19:59:52.077Z,95917.72
2018-09-19T20:02:21.856Z,95921.58
2018-09-19T20:04:51.723Z,95916.47
2018-09-19T20:07:21.545Z,95919.47
2018-09-19T20:09:51.219Z,95916.82
2018-09-19T20:12:21.023Z,95911.86
2018-09-19T20:14:50.761Z,95915.75
2018-09-19T20:17:20.483Z,95918.05
2018-09-19T20:19:50.326Z,95916.11
2018-09-19T20:22:20.073Z,95919.61
2018-09-19T20:24:49.887Z,95914.92
2018-09-19T20:27:19.625Z,95923.09
2018-09-19T20:29:49.367Z,95916.34
2018-09-19T20:32:18.990Z,95913.70
2018-09-19T20:34:48.650Z,95913.20
2018-09-19T20:37:18.423Z,95915.20
2018-09-19T20:39:48.181Z,95916.46
2018-09-19T20:42:17.870Z,95918.36
2018-09-19T20:44:47.905Z,95917.08
2018-09-19T20:47:18.286Z,95918.65
2018-09-19T20:49:48.039Z,95920.41
2018-09-19T20:52:17.945Z,95917.39
2018-09-19T20:54:47.757Z,95920.17
2018-09-19T20:57:17.589Z,95917.90
2018-09-19T20:59:47.351Z,95919.41
2018-09-19T21:02:17.087Z,95915.30
2018-09-19T21:04:46.917Z,95919.27
2018-09-19T21:07:16.665Z,95916.81
2018-09-19T21:09:46.263Z,95915.83
2018-09-19T21:12:15.999Z,95908.67
2018-09-19T21:14:45.648Z,95900.37
2018-09-19T21:17:15.466Z,95904.58
2018-09-19T21:19:45.390Z,95901.22
2018-09-19T21:22:15.409Z,95899.45
2018-09-19T21:24:44.866Z,95901.72
2018-09-19T21:27:14.639Z,95906.76
2018-09-19T21:29:44.360Z,95909.92
2018-09-19T21:32:14.225Z,95904.14
2018-09-19T21:34:43.966Z,95907.78
2018-09-19T21:37:13.813Z,95907.61
2018-09-19T21:39:43.551Z,95911.83
2018-09-19T21:42:13.458Z,95915.47
2018-09-19T21:44:43.169Z,95917.91
2018-09-19T21:47:12.945Z,95925.36
2018-09-19T21:49:43.123Z,95920.11
2018-09-19T21:52:12.789Z,95922.83
2018-09-19T21:54:42.586Z,95919.15
2018-09-19T21:57:12.356Z,95916.13
2018-09-19T21:59:41.889Z,95918.75
2018-09-19T22:02:11.614Z,95917.14
2018-09-19T22:04:41.511Z,95913.42
2018-09-19T22:07:11.213Z,95920.70
2018-09-19T22:09:41.081Z,95914.13
2018-09-19T22:12:11.883Z,95914.75
2018-09-19T22:14:43.122Z,95912.75
2018-09-19T22:17:13.013Z,95920.48
2018-09-19T22:19:42.733Z,95915.19
2018-09-19T22:22:13.154Z,95914.78
2018-09-19T22:24:42.894Z,95920.11
2018-09-19T22:27:12.696Z,95912.59
2018-09-19T22:29:42.642Z,95911.72
2018-09-19T22:32:12.391Z,95915.78
2018-09-19T22:34:42.191Z,95919.60
2018-09-19T22:37:12.022Z,95917.06
2018-09-19T22:39:41.808Z,95917.55
2018-09-19T22:42:11.604Z,95916.41
2018-09-19T22:44:41.248Z,95916.64
2018-09-19T22:47:11.036Z,95912.32
2018-09-19T22:49:40.791Z,95923.87
2018-09-19T22:52:11.100Z,95916.89
2018-09-19T22:54:40.914Z,95925.16
2018-09-19T22:57:10.671Z,95919.95
2018-09-19T22:59:40.583Z,95923.27
2018-09-19T23:02:10.373Z,95918.78
2018-09-19T23:04:40.091Z,95924.27
2018-09-19T23:07:09.940Z,95916.09
2018-09-19T23:09:39.677Z,95913.50
2018-09-19T23:12:09.468Z,95687.36
2018-09-19T23:14:39.274Z,95905.33
2018-09-19T23:17:09.161Z,95906.48
2018-09-19T23:19:38.936Z,95907.21
2018-09-19T23:22:08.676Z,95904.27
2018-09-19T23:24:38.570Z,95900.91
2018-09-19T23:31:38.821Z,95891.69
2018-09-19T23:34:08.518Z,95892.30
2018-09-19T23:36:38.292Z,95893.64
2018-09-19T23:39:10.437Z,95888.00
2018-09-19T23:41:40.245Z,95887.12
2018-09-19T23:44:09.897Z,95886.73
2018-09-19T23:46:39.985Z,95887.44
2018-09-19T23:49:10.130Z,95887.30
2018-09-19T23:51:39.815Z,95882.00
2018-09-19T23:54:10.091Z,95881.73
2018-09-19T23:56:39.942Z,95878.48
2018-09-19T23:59:09.860Z,95882.64
